Time;durP1;ratioP1;P1;durP2;ratioP2;P2;SDS_P1;SDS_P2;PMS_P1;PMS_P2;Temp;Humidity;BMP_temperature;BMP_pressure;BME280_temperature;BME280_humidity;BME280_pressure;Samples;Min_cycle;Max_cycle;Signal;HPM_P1;HPM_P2
2022/12/02 00:00:30;;;;;;;3.30;0.55;;;;;;;;;;4969597;28;20070;-63
2022/12/02 00:03:01;;;;;;;2.63;0.82;;;;;;;;;;4970108;28;20183;-64
2022/12/02 00:05:33;;;;;;;1.00;0.52;;;;;;;;;;4953680;28;20067;-62
2022/12/02 00:08:20;;;;;;;2.05;0.80;;;;;;;;;;4969749;28;20432;-62
2022/12/02 00:10:52;;;;;;;1.15;0.45;;;;;;;;;;4921926;28;20557;-62
2022/12/02 00:13:31;;;;;;;1.58;0.40;;;;;;;;;;4937966;28;20574;-62
2022/12/02 00:16:04;;;;;;;0.98;0.30;;;;;;;;;;4969745;28;20054;-62
2022/12/02 00:18:34;;;;;;;2.42;0.80;;;;;;;;;;4986501;28;20117;-62
2022/12/02 00:21:05;;;;;;;5.13;0.73;;;;;;;;;;5015114;28;20513;-62
2022/12/02 00:23:35;;;;;;;2.10;0.57;;;;;;;;;;5011227;28;20072;-62
2022/12/02 00:26:05;;;;;;;0.98;0.50;;;;;;;;;;5011106;28;20042;-62
2022/12/02 00:28:34;;;;;;;0.88;0.43;;;;;;;;;;5011143;28;20046;-62
2022/12/02 00:31:04;;;;;;;4.88;1.10;;;;;;;;;;5028153;28;20410;-63
2022/12/02 00:33:35;;;;;;;2.15;0.28;;;;;;;;;;5028525;28;20058;-64
2022/12/02 00:36:05;;;;;;;1.73;0.55;;;;;;;;;;5007575;28;20054;-65
2022/12/02 00:38:35;;;;;;;2.42;0.77;;;;;;;;;;5009088;28;20057;-63
2022/12/02 00:41:05;;;;;;;2.15;0.77;;;;;;;;;;5008410;28;20069;-64
2022/12/02 00:46:33;;;;;;;2.88;0.70;;;;;;;;;;4956635;28;20073;-64
2022/12/02 00:49:13;;;;;;;4.60;0.40;;;;;;;;;;4972844;28;20069;-64
2022/12/02 00:51:44;;;;;;;3.17;0.70;;;;;;;;;;4988655;28;20065;-64
2022/12/02 00:54:14;;;;;;;2.92;0.55;;;;;;;;;;4968794;28;20043;-63
2022/12/02 00:56:45;;;;;;;3.70;0.68;;;;;;;;;;4966380;28;20932;-64
2022/12/02 00:59:15;;;;;;;2.13;0.63;;;;;;;;;;4905659;29;20051;-64
2022/12/02 01:01:45;;;;;;;1.42;0.60;;;;;;;;;;4969577;28;20094;-64
2022/12/02 01:04:15;;;;;;;2.17;0.50;;;;;;;;;;4953608;29;20056;-64
2022/12/02 01:06:46;;;;;;;1.30;0.80;;;;;;;;;;4968692;28;20424;-65
2022/12/02 01:09:17;;;;;;;1.48;0.50;;;;;;;;;;4939890;29;20055;-64
2022/12/02 01:11:47;;;;;;;0.82;0.43;;;;;;;;;;4896265;29;20056;-64
2022/12/02 01:14:17;;;;;;;7.32;0.65;;;;;;;;;;4934146;29;20056;-64
2022/12/02 01:16:47;;;;;;;1.50;0.70;;;;;;;;;;4934624;29;20416;-64
2022/12/02 01:19:17;;;;;;;1.40;0.55;;;;;;;;;;4953271;29;20052;-66
2022/12/02 01:21:47;;;;;;;0.85;0.40;;;;;;;;;;4952940;29;20073;-64
2022/12/02 01:24:17;;;;;;;3.72;0.50;;;;;;;;;;4956037;28;20058;-63
2022/12/02 01:26:47;;;;;;;7.70;0.82;;;;;;;;;;4988502;28;20518;-65
2022/12/02 01:29:17;;;;;;;2.22;0.90;;;;;;;;;;4972767;28;20054;-65
2022/12/02 01:31:47;;;;;;;3.47;0.88;;;;;;;;;;4948567;28;20077;-65
2022/12/02 01:34:17;;;;;;;2.00;0.52;;;;;;;;;;4983767;28;20092;-65
2022/12/02 01:36:47;;;;;;;2.08;1.15;;;;;;;;;;5020313;28;20644;-65
2022/12/02 01:39:17;;;;;;;3.20;0.52;;;;;;;;;;4994593;28;20089;-65
2022/12/02 01:41:47;;;;;;;1.55;0.80;;;;;;;;;;5011192;28;20058;-64
2022/12/02 01:44:16;;;;;;;1.42;0.65;;;;;;;;;;4991920;28;20050;-64
2022/12/02 01:46:46;;;;;;;6.90;0.80;;;;;;;;;;4975392;28;20062;-63
2022/12/02 01:49:16;;;;;;;2.33;0.90;;;;;;;;;;4991896;28;20062;-64
2022/12/02 01:51:47;;;;;;;4.97;0.82;;;;;;;;;;4991874;28;20058;-64
2022/12/02 01:54:16;;;;;;;3.75;0.70;;;;;;;;;;4991399;28;20054;-63
2022/12/02 01:56:47;;;;;;;2.63;1.30;;;;;;;;;;4983042;28;20455;-63
2022/12/02 01:59:17;;;;;;;4.15;0.80;;;;;;;;;;4932331;29;20060;-64
2022/12/02 02:01:48;;;;;;;2.63;0.90;;;;;;;;;;4895502;29;20060;-64
2022/12/02 02:04:18;;;;;;;4.13;0.90;;;;;;;;;;4880447;29;20064;-64
2022/12/02 02:06:48;;;;;;;3.20;1.00;;;;;;;;;;4911417;29;20524;-64
2022/12/02 02:09:18;;;;;;;5.93;0.88;;;;;;;;;;4928482;29;20052;-64
2022/12/02 02:11:48;;;;;;;2.40;1.05;;;;;;;;;;4929873;29;20063;-65
2022/12/02 02:14:19;;;;;;;6.07;1.38;;;;;;;;;;4914121;29;20056;-65
2022/12/02 02:16:49;;;;;;;6.35;0.90;;;;;;;;;;4905947;29;20065;-65
2022/12/02 02:19:18;;;;;;;5.72;0.90;;;;;;;;;;4895463;29;20056;-65
2022/12/02 02:21:52;;;;;;;5.00;1.48;;;;;;;;;;4922532;29;20452;-65
2022/12/02 02:24:23;;;;;;;3.58;0.88;;;;;;;;;;4942638;29;20059;-64
2022/12/02 02:26:54;;;;;;;2.58;0.73;;;;;;;;;;4916875;29;20047;-65
2022/12/02 02:29:25;;;;;;;2.85;0.93;;;;;;;;;;4948650;29;20068;-65
2022/12/02 02:31:55;;;;;;;2.88;1.00;;;;;;;;;;4932792;29;20062;-63
2022/12/02 02:34:25;;;;;;;4.53;1.05;;;;;;;;;;4960929;28;20055;-63
2022/12/02 02:36:55;;;;;;;3.38;1.00;;;;;;;;;;4951791;29;20055;-64
2022/12/02 02:39:26;;;;;;;3.63;1.13;;;;;;;;;;4932741;29;20083;-64
2022/12/02 02:41:58;;;;;;;4.05;1.60;;;;;;;;;;4897916;29;20468;-64
2022/12/02 02:44:29;;;;;;;3.58;1.10;;;;;;;;;;4913682;29;20052;-63
2022/12/02 02:46:59;;;;;;;4.38;1.05;;;;;;;;;;4894479;29;20053;-63
2022/12/02 02:49:29;;;;;;;3.60;1.60;;;;;;;;;;4860561;29;20053;-64
2022/12/02 02:51:59;;;;;;;4.35;1.38;;;;;;;;;;4876455;29;20065;-63
2022/12/02 02:54:29;;;;;;;3.28;0.90;;;;;;;;;;4857034;29;20057;-63
2022/12/02 02:56:59;;;;;;;4.70;1.35;;;;;;;;;;4848068;29;20054;-63
2022/12/02 02:59:29;;;;;;;2.95;1.00;;;;;;;;;;4884680;29;20061;-63
2022/12/02 03:02:00;;;;;;;5.25;0.90;;;;;;;;;;4904311;29;20053;-64
2022/12/02 03:04:30;;;;;;;3.63;1.17;;;;;;;;;;4881947;29;20057;-64
2022/12/02 03:07:00;;;;;;;2.97;1.02;;;;;;;;;;4857249;29;20062;-63
2022/12/02 03:09:31;;;;;;;4.18;1.13;;;;;;;;;;4894177;29;20056;-63
2022/12/02 03:12:02;;;;;;;2.65;1.45;;;;;;;;;;4894251;29;20643;-64
2022/12/02 03:14:32;;;;;;;2.85;0.80;;;;;;;;;;4897710;29;20064;-64
2022/12/02 03:17:03;;;;;;;3.80;1.00;;;;;;;;;;4912705;29;20389;-64
2022/12/02 03:19:34;;;;;;;5.43;1.20;;;;;;;;;;4888041;29;20056;-63
2022/12/02 03:22:05;;;;;;;3.20;1.38;;;;;;;;;;4885747;29;20461;-64
2022/12/02 03:24:35;;;;;;;5.07;0.82;;;;;;;;;;4875795;29;20506;-64
2022/12/02 03:27:07;;;;;;;2.42;1.05;;;;;;;;;;4836030;29;20066;-63
2022/12/02 03:29:37;;;;;;;1.92;0.93;;;;;;;;;;4871819;29;20518;-63
2022/12/02 03:32:09;;;;;;;5.18;1.10;;;;;;;;;;4865987;29;20056;-63
2022/12/02 03:34:41;;;;;;;4.95;1.17;;;;;;;;;;4864446;29;20065;-63
2022/12/02 03:37:12;;;;;;;4.07;1.13;;;;;;;;;;4932522;29;20508;-63
2022/12/02 03:39:43;;;;;;;6.85;1.20;;;;;;;;;;4951783;28;20065;-63
2022/12/02 03:42:13;;;;;;;4.07;1.88;;;;;;;;;;4970596;28;20515;-65
2022/12/02 03:44:43;;;;;;;4.18;1.00;;;;;;;;;;4970290;28;20058;-64
2022/12/02 03:47:13;;;;;;;4.20;1.25;;;;;;;;;;4980083;28;20074;-64
2022/12/02 03:49:43;;;;;;;2.88;1.10;;;;;;;;;;4989438;28;20062;-63
2022/12/02 03:52:13;;;;;;;5.55;0.93;;;;;;;;;;4989694;28;20058;-63
2022/12/02 03:54:43;;;;;;;4.03;1.13;;;;;;;;;;4961816;28;20053;-64
2022/12/02 03:57:19;;;;;;;4.75;1.10;;;;;;;;;;5029128;28;20045;-64
2022/12/02 03:59:49;;;;;;;3.20;1.10;;;;;;;;;;5028457;28;20056;-64
2022/12/02 04:02:20;;;;;;;4.63;1.50;;;;;;;;;;4979474;28;20064;-64
2022/12/02 04:04:50;;;;;;;1.52;0.68;;;;;;;;;;4995930;28;20053;-64
2022/12/02 04:07:20;;;;;;;5.85;1.00;;;;;;;;;;5028781;28;20061;-64
2022/12/02 04:09:50;;;;;;;5.05;0.90;;;;;;;;;;5028530;28;20053;-66
2022/12/02 04:12:20;;;;;;;5.03;1.00;;;;;;;;;;4995604;28;20052;-67
2022/12/02 04:14:50;;;;;;;2.47;1.02;;;;;;;;;;4995158;28;20048;-64
2022/12/02 04:17:21;;;;;;;4.65;0.90;;;;;;;;;;5028486;28;20068;-65
2022/12/02 04:19:51;;;;;;;2.80;1.00;;;;;;;;;;5028589;28;20061;-63
2022/12/02 04:22:21;;;;;;;1.95;0.70;;;;;;;;;;5028410;28;20054;-62
2022/12/02 04:24:50;;;;;;;6.68;0.95;;;;;;;;;;5028250;28;20460;-63
2022/12/02 04:27:21;;;;;;;2.47;1.02;;;;;;;;;;5028393;28;20073;-62
2022/12/02 04:29:51;;;;;;;4.03;1.00;;;;;;;;;;5028593;28;20057;-62
2022/12/02 04:32:21;;;;;;;5.43;1.02;;;;;;;;;;5030971;28;20061;-62
2022/12/02 04:34:50;;;;;;;2.80;1.10;;;;;;;;;;5015803;28;20053;-62
2022/12/02 04:37:21;;;;;;;2.47;1.05;;;;;;;;;;5032735;28;20065;-62
2022/12/02 04:39:51;;;;;;;3.03;1.05;;;;;;;;;;5015895;28;20482;-63
2022/12/02 04:42:21;;;;;;;7.68;1.13;;;;;;;;;;5032596;28;20064;-63
2022/12/02 04:44:51;;;;;;;6.35;1.10;;;;;;;;;;5032439;28;20528;-63
2022/12/02 04:47:21;;;;;;;5.00;1.13;;;;;;;;;;4999775;28;20064;-63
2022/12/02 04:49:51;;;;;;;7.75;1.70;;;;;;;;;;5032467;28;20053;-63
2022/12/02 04:52:20;;;;;;;3.80;1.00;;;;;;;;;;5024156;28;20521;-64
2022/12/02 04:54:50;;;;;;;4.85;1.20;;;;;;;;;;5012540;28;20063;-63
2022/12/02 04:57:21;;;;;;;3.38;1.23;;;;;;;;;;5015231;28;20053;-62
2022/12/02 04:59:59;;;;;;;2.30;1.10;;;;;;;;;;5015064;28;20057;-63
2022/12/02 05:02:30;;;;;;;2.15;0.98;;;;;;;;;;5015066;28;20037;-63
2022/12/02 05:05:00;;;;;;;3.90;1.10;;;;;;;;;;5012612;28;20061;-63
2022/12/02 05:07:30;;;;;;;3.40;1.00;;;;;;;;;;5012710;28;20077;-62
2022/12/02 05:09:59;;;;;;;4.95;1.52;;;;;;;;;;5014742;28;20501;-62
2022/12/02 05:12:30;;;;;;;3.58;1.48;;;;;;;;;;5014588;28;20042;-62
2022/12/02 05:14:59;;;;;;;3.83;1.02;;;;;;;;;;5014197;28;20050;-62
2022/12/02 05:17:32;;;;;;;5.05;1.02;;;;;;;;;;5014555;28;20054;-64
2022/12/02 05:20:10;;;;;;;5.57;1.50;;;;;;;;;;5014099;28;20057;-64
2022/12/02 05:22:41;;;;;;;6.63;1.38;;;;;;;;;;5014418;28;20410;-64
2022/12/02 05:25:12;;;;;;;3.60;1.30;;;;;;;;;;5031453;28;20049;-63
2022/12/02 05:27:42;;;;;;;6.05;1.30;;;;;;;;;;5031497;28;20560;-64
2022/12/02 05:30:13;;;;;;;5.38;1.77;;;;;;;;;;5031520;28;20181;-64
2022/12/02 05:32:43;;;;;;;4.80;1.00;;;;;;;;;;5031938;28;20053;-64
2022/12/02 05:35:13;;;;;;;4.43;1.13;;;;;;;;;;4981823;28;20064;-64
2022/12/02 05:37:43;;;;;;;5.22;1.50;;;;;;;;;;5015099;28;20057;-64
2022/12/02 05:40:12;;;;;;;3.70;1.20;;;;;;;;;;5031227;28;20583;-63
2022/12/02 05:42:43;;;;;;;3.40;1.63;;;;;;;;;;5031431;28;20513;-64
2022/12/02 05:45:17;;;;;;;5.18;1.40;;;;;;;;;;5015096;28;20067;-63
2022/12/02 05:47:53;;;;;;;8.30;1.30;;;;;;;;;;4998446;28;20529;-64
2022/12/02 05:50:23;;;;;;;7.47;1.30;;;;;;;;;;5031107;28;20647;-64
2022/12/02 05:52:56;;;;;;;5.07;1.42;;;;;;;;;;5014418;28;20537;-64
2022/12/02 05:55:27;;;;;;;5.80;1.45;;;;;;;;;;4998037;28;20057;-64
2022/12/02 05:58:01;;;;;;;4.45;1.60;;;;;;;;;;4982205;28;20058;-64
2022/12/02 06:00:32;;;;;;;5.13;1.73;;;;;;;;;;5023032;28;20054;-64
2022/12/02 06:03:08;;;;;;;5.97;1.30;;;;;;;;;;4991670;28;20061;-63
2022/12/02 06:05:41;;;;;;;3.55;1.27;;;;;;;;;;5007638;28;20154;-63
2022/12/02 06:08:21;;;;;;;3.42;1.50;;;;;;;;;;4991485;28;20070;-64
2022/12/02 06:11:15;;;;;;;4.43;1.45;;;;;;;;;;4991352;28;20097;-64
2022/12/02 06:13:45;;;;;;;5.13;1.30;;;;;;;;;;4991606;28;20062;-64
2022/12/02 06:16:22;;;;;;;4.57;2.22;;;;;;;;;;4991209;28;20598;-64
2022/12/02 06:18:53;;;;;;;4.18;1.52;;;;;;;;;;4991610;28;20426;-64
2022/12/02 06:21:23;;;;;;;6.82;1.67;;;;;;;;;;4991285;28;20054;-64
2022/12/02 06:23:57;;;;;;;4.07;1.60;;;;;;;;;;4942798;28;20095;-64
2022/12/02 06:26:27;;;;;;;6.05;1.40;;;;;;;;;;4991250;28;20046;-64
2022/12/02 06:29:03;;;;;;;8.90;1.70;;;;;;;;;;4991090;28;20081;-64
2022/12/02 06:31:41;;;;;;;4.97;1.83;;;;;;;;;;5006909;28;20062;-64
2022/12/02 06:34:46;;;;;;;6.43;1.50;;;;;;;;;;4957975;28;20062;-64
2022/12/02 06:37:22;;;;;;;3.45;1.35;;;;;;;;;;4993880;28;20060;-64
2022/12/02 06:39:54;;;;;;;3.92;1.67;;;;;;;;;;5012750;28;20045;-64
2022/12/02 06:42:45;;;;;;;4.78;2.05;;;;;;;;;;5012672;28;20045;-64
2022/12/02 06:45:26;;;;;;;7.15;2.55;;;;;;;;;;5012024;28;20053;-64
2022/12/02 06:48:03;;;;;;;5.15;2.22;;;;;;;;;;5012855;28;20402;-64
2022/12/02 06:50:40;;;;;;;4.88;1.73;;;;;;;;;;5010567;28;20081;-64
2022/12/02 06:53:25;;;;;;;10.20;1.88;;;;;;;;;;5012696;28;20045;-64
2022/12/02 06:56:07;;;;;;;5.38;2.08;;;;;;;;;;5009850;28;20053;-63
2022/12/02 06:58:53;;;;;;;7.35;1.75;;;;;;;;;;5012840;28;20072;-63
2022/12/02 07:01:40;;;;;;;4.07;1.73;;;;;;;;;;5012931;28;20486;-64
2022/12/02 07:04:25;;;;;;;4.53;1.95;;;;;;;;;;5012479;28;20046;-64
2022/12/02 07:06:57;;;;;;;;;;;;;;;;;;4994571;28;20045;-64
2022/12/02 07:09:39;;;;;;;6.85;1.60;;;;;;;;;;5010139;28;19957;-64
2022/12/02 07:12:17;;;;;;;7.95;1.73;;;;;;;;;;5010185;28;20413;-64
2022/12/02 07:15:01;;;;;;;8.43;2.00;;;;;;;;;;4993801;28;20510;-64
2022/12/02 07:17:36;;;;;;;5.10;1.48;;;;;;;;;;5012224;28;20517;-64
2022/12/02 07:20:07;;;;;;;4.82;1.77;;;;;;;;;;5029128;28;20053;-64
2022/12/02 07:23:23;;;;;;;6.28;1.92;;;;;;;;;;5045613;28;20065;-64
2022/12/02 07:25:59;;;;;;;4.50;1.52;;;;;;;;;;4957596;28;20058;-64
2022/12/02 07:28:41;;;;;;;6.75;2.05;;;;;;;;;;4941577;28;20058;-64
2022/12/02 07:31:21;;;;;;;3.65;1.92;;;;;;;;;;4957910;28;20065;-64
2022/12/02 07:33:52;;;;;;;7.43;2.00;;;;;;;;;;4989959;28;20050;-64
2022/12/02 07:36:22;;;;;;;10.90;2.33;;;;;;;;;;4969842;28;20046;-64
2022/12/02 07:38:53;;;;;;;3.55;1.70;;;;;;;;;;4970446;28;20067;-64
2022/12/02 07:41:38;;;;;;;5.05;1.50;;;;;;;;;;4950814;29;20054;-64
2022/12/02 07:44:08;;;;;;;6.45;1.88;;;;;;;;;;4950993;29;20090;-64
2022/12/02 07:46:38;;;;;;;5.07;1.95;;;;;;;;;;4951110;29;20210;-64
2022/12/02 07:49:07;;;;;;;4.80;2.05;;;;;;;;;;4951066;29;20063;-64
2022/12/02 07:51:38;;;;;;;5.40;1.83;;;;;;;;;;4914429;29;20539;-64
2022/12/02 07:54:07;;;;;;;3.47;1.58;;;;;;;;;;4931941;29;20056;-64
2022/12/02 07:56:37;;;;;;;8.27;1.77;;;;;;;;;;4931337;29;20051;-64
2022/12/02 07:59:07;;;;;;;3.92;1.60;;;;;;;;;;4931374;29;20071;-64
2022/12/02 08:01:41;;;;;;;5.10;1.95;;;;;;;;;;4938660;29;20059;-64
2022/12/02 08:04:12;;;;;;;5.38;1.90;;;;;;;;;;4912293;29;20509;-64
2022/12/02 08:06:42;;;;;;;4.95;1.75;;;;;;;;;;4930253;29;20771;-64
2022/12/02 08:09:12;;;;;;;5.20;1.50;;;;;;;;;;4899452;29;20515;-64
2022/12/02 08:11:42;;;;;;;7.93;1.42;;;;;;;;;;4896175;29;20052;-64
2022/12/02 08:14:12;;;;;;;5.18;2.30;;;;;;;;;;4912350;29;20497;-64
2022/12/02 08:16:42;;;;;;;7.60;2.00;;;;;;;;;;4896118;29;20503;-64
2022/12/02 08:19:12;;;;;;;4.38;2.10;;;;;;;;;;4903446;28;20066;-64
2022/12/02 08:21:42;;;;;;;5.68;2.38;;;;;;;;;;4902616;28;20051;-64
2022/12/02 08:24:12;;;;;;;6.93;2.40;;;;;;;;;;4902658;28;20063;-64
2022/12/02 08:26:43;;;;;;;3.85;1.92;;;;;;;;;;4950383;28;20067;-64
2022/12/02 08:29:14;;;;;;;5.80;2.03;;;;;;;;;;4969002;28;20058;-64
2022/12/02 08:31:44;;;;;;;8.80;1.95;;;;;;;;;;4988947;28;20065;-64
2022/12/02 08:34:14;;;;;;;4.90;1.73;;;;;;;;;;4918240;29;20111;-64
2022/12/02 08:36:44;;;;;;;7.18;2.10;;;;;;;;;;4950147;29;20527;-64
2022/12/02 08:39:14;;;;;;;8.75;2.05;;;;;;;;;;4918399;29;20933;-63
2022/12/02 08:41:44;;;;;;;6.00;1.73;;;;;;;;;;4897521;29;20063;-64
2022/12/02 08:44:14;;;;;;;6.90;2.05;;;;;;;;;;4918532;29;20063;-64
2022/12/02 08:46:44;;;;;;;7.93;2.25;;;;;;;;;;4950233;29;20495;-65
2022/12/02 08:49:22;;;;;;;7.25;1.88;;;;;;;;;;4960018;28;20054;-65
2022/12/02 08:51:53;;;;;;;5.65;1.70;;;;;;;;;;4969716;28;20059;-64
2022/12/02 08:54:23;;;;;;;8.50;2.10;;;;;;;;;;4969219;28;20058;-64
2022/12/02 08:56:54;;;;;;;6.20;1.80;;;;;;;;;;4969194;28;20050;-63
2022/12/02 08:59:26;;;;;;;3.60;1.83;;;;;;;;;;4969055;28;20051;-62
2022/12/02 09:01:56;;;;;;;5.25;1.80;;;;;;;;;;4953372;28;20058;-62
2022/12/02 09:04:26;;;;;;;4.45;1.88;;;;;;;;;;4969442;28;20047;-64
2022/12/02 09:06:56;;;;;;;6.85;1.83;;;;;;;;;;4969592;28;20488;-63
2022/12/02 09:09:26;;;;;;;5.07;2.00;;;;;;;;;;4921125;28;20368;-64
2022/12/02 09:11:56;;;;;;;4.90;1.75;;;;;;;;;;4948708;28;20053;-65
2022/12/02 09:14:26;;;;;;;6.15;1.88;;;;;;;;;;5010660;28;20065;-64
2022/12/02 09:16:56;;;;;;;5.93;1.80;;;;;;;;;;5010748;28;20049;-64
2022/12/02 09:19:27;;;;;;;9.48;2.20;;;;;;;;;;5028393;28;20438;-63
2022/12/02 09:21:56;;;;;;;8.70;2.28;;;;;;;;;;5014485;28;20045;-63
2022/12/02 09:24:26;;;;;;;3.95;1.90;;;;;;;;;;5014243;28;20042;-63
2022/12/02 09:26:56;;;;;;;5.55;2.15;;;;;;;;;;5011913;28;20053;-63
2022/12/02 09:29:26;;;;;;;9.10;2.10;;;;;;;;;;5011499;28;20054;-63
2022/12/02 09:31:57;;;;;;;4.57;1.77;;;;;;;;;;5012057;28;20058;-63
2022/12/02 09:34:27;;;;;;;5.85;2.50;;;;;;;;;;4995202;28;20085;-64
2022/12/02 09:36:57;;;;;;;6.28;2.50;;;;;;;;;;5011800;28;20061;-63
2022/12/02 09:39:28;;;;;;;11.07;2.60;;;;;;;;;;5013720;28;20057;-63
2022/12/02 09:42:03;;;;;;;7.32;3.13;;;;;;;;;;5031213;28;20541;-63
2022/12/02 09:44:34;;;;;;;5.65;2.92;;;;;;;;;;5031236;28;20439;-63
2022/12/02 09:47:04;;;;;;;7.63;2.80;;;;;;;;;;5014540;28;20457;-63
2022/12/02 09:49:35;;;;;;;6.38;2.22;;;;;;;;;;5047478;28;20049;-64
2022/12/02 09:52:12;;;;;;;9.82;2.30;;;;;;;;;;5014520;28;20480;-64
2022/12/02 09:54:45;;;;;;;6.05;2.25;;;;;;;;;;5030875;28;20068;-64
2022/12/02 09:57:16;;;;;;;5.75;2.13;;;;;;;;;;5014268;28;20052;-64
2022/12/02 09:59:47;;;;;;;4.80;2.13;;;;;;;;;;5030641;28;20629;-64
2022/12/02 10:02:27;;;;;;;4.88;2.47;;;;;;;;;;5030912;28;20053;-64
2022/12/02 10:05:06;;;;;;;7.28;2.15;;;;;;;;;;5030774;28;20057;-64
2022/12/02 10:07:37;;;;;;;6.50;2.80;;;;;;;;;;5047383;28;20139;-63
2022/12/02 10:10:12;;;;;;;11.15;2.47;;;;;;;;;;5030666;28;20064;-64
2022/12/02 10:12:42;;;;;;;5.88;2.22;;;;;;;;;;5030640;28;20506;-64
2022/12/02 10:15:18;;;;;;;4.90;2.45;;;;;;;;;;5046884;28;20072;-64
2022/12/02 10:17:50;;;;;;;4.07;2.30;;;;;;;;;;5030517;28;20041;-63
2022/12/02 10:20:25;;;;;;;3.70;1.98;;;;;;;;;;5017422;28;20061;-63
2022/12/02 10:23:11;;;;;;;5.55;2.72;;;;;;;;;;5013444;28;20046;-63
2022/12/02 10:25:44;;;;;;;5.03;1.70;;;;;;;;;;5030416;28;20049;-64
2022/12/02 10:28:29;;;;;;;6.32;1.80;;;;;;;;;;5014686;28;20053;-64
2022/12/02 10:31:11;;;;;;;5.43;1.88;;;;;;;;;;4997254;28;20045;-64
2022/12/02 10:33:51;;;;;;;3.33;1.67;;;;;;;;;;4997143;28;20053;-63
2022/12/02 10:36:42;;;;;;;2.58;1.40;;;;;;;;;;5030169;28;20168;-64
2022/12/02 10:39:22;;;;;;;4.35;1.60;;;;;;;;;;5030128;28;20041;-63
2022/12/02 10:42:07;;;;;;;3.92;1.85;;;;;;;;;;5030207;28;20053;-63
2022/12/02 10:44:38;;;;;;;;;;;;;;;;;;5050637;28;20448;-63
2022/12/02 10:47:22;;;;;;;2.75;1.15;;;;;;;;;;5016829;28;19924;-64
2022/12/02 10:49:59;;;;;;;2.83;1.23;;;;;;;;;;5033258;28;20537;-63
2022/12/02 10:52:46;;;;;;;4.50;1.10;;;;;;;;;;5016812;28;20083;-63
2022/12/02 10:55:17;;;;;;;1.30;0.75;;;;;;;;;;5049500;28;20060;-63
2022/12/02 10:57:49;;;;;;;2.40;0.75;;;;;;;;;;5015617;28;20062;-63
2022/12/02 11:00:25;;;;;;;15.63;7.47;;;;;;;;;;5028895;28;20556;-63
2022/12/02 11:02:57;;;;;;;5.03;1.70;;;;;;;;;;5029583;28;20510;-63
2022/12/02 11:05:33;;;;;;;1.67;0.98;;;;;;;;;;5029047;28;20057;-63
2022/12/02 11:08:28;;;;;;;2.17;1.35;;;;;;;;;;5029793;28;20069;-63
2022/12/02 11:11:12;;;;;;;1.52;0.80;;;;;;;;;;5029660;28;20064;-63
2022/12/02 11:13:58;;;;;;;;;;;;;;;;;;5030086;28;20042;-63
2022/12/02 11:16:28;;;;;;;3.97;0.82;;;;;;;;;;5029354;28;19928;-63
2022/12/02 11:19:11;;;;;;;2.88;0.80;;;;;;;;;;5029356;28;20049;-63
2022/12/02 11:21:44;;;;;;;1.90;1.10;;;;;;;;;;4996680;28;20057;-63
2022/12/02 11:24:25;;;;;;;2.10;0.80;;;;;;;;;;5029325;28;20084;-64
2022/12/02 11:27:03;;;;;;;4.40;0.80;;;;;;;;;;5029400;28;20100;-63
2022/12/02 11:30:05;;;;;;;3.72;0.98;;;;;;;;;;4996240;28;20677;-64
2022/12/02 11:32:36;;;;;;;4.45;0.90;;;;;;;;;;4970438;28;20422;-64
2022/12/02 11:35:15;;;;;;;1.48;0.80;;;;;;;;;;4969922;28;20199;-64
2022/12/02 11:38:08;;;;;;;3.10;1.48;;;;;;;;;;4954431;28;20578;-64
2022/12/02 11:40:38;;;;;;;1.27;0.80;;;;;;;;;;4970299;28;20175;-64
2022/12/02 11:43:50;;;;;;;2.92;0.95;;;;;;;;;;4970300;28;20054;-64
2022/12/02 11:46:42;;;;;;;2.05;0.73;;;;;;;;;;4931836;29;20067;-65
2022/12/02 11:49:41;;;;;;;1.60;0.90;;;;;;;;;;4900235;29;20201;-64
2022/12/02 11:52:16;;;;;;;2.75;1.10;;;;;;;;;;4862569;29;20055;-64
2022/12/02 11:55:03;;;;;;;3.05;1.00;;;;;;;;;;4893853;29;20101;-64
2022/12/02 11:57:51;;;;;;;2.75;1.00;;;;;;;;;;4893659;29;20069;-64
2022/12/02 12:00:27;;;;;;;2.20;1.00;;;;;;;;;;4877759;29;20052;-65
2022/12/02 12:03:08;;;;;;;5.10;1.40;;;;;;;;;;4893624;29;20414;-64
2022/12/02 12:05:41;;;;;;;1.48;0.95;;;;;;;;;;4893694;29;20053;-64
2022/12/02 12:08:25;;;;;;;2.47;1.10;;;;;;;;;;4867766;29;20063;-64
2022/12/02 12:11:16;;;;;;;7.40;3.42;;;;;;;;;;4931436;29;20055;-63
2022/12/02 12:14:18;;;;;;;5.22;1.63;;;;;;;;;;4899924;29;20047;-64
2022/12/02 12:16:50;;;;;;;5.65;1.33;;;;;;;;;;4899850;29;20051;-64
2022/12/02 12:19:21;;;;;;;3.20;1.55;;;;;;;;;;4884294;29;20052;-64
2022/12/02 12:21:55;;;;;;;7.22;1.20;;;;;;;;;;4912241;29;20487;-64
2022/12/02 12:24:27;;;;;;;3.28;1.50;;;;;;;;;;4912529;29;20138;-64
2022/12/02 12:27:10;;;;;;;2.53;1.40;;;;;;;;;;4896534;29;20052;-65
2022/12/02 12:29:41;;;;;;;3.60;1.30;;;;;;;;;;4969509;28;20058;-64
2022/12/02 12:32:11;;;;;;;3.05;1.40;;;;;;;;;;4989154;28;20054;-64
2022/12/02 12:34:41;;;;;;;3.00;1.20;;;;;;;;;;4988423;28;20058;-65
2022/12/02 12:37:12;;;;;;;3.58;1.38;;;;;;;;;;4989164;28;20061;-65
2022/12/02 12:39:42;;;;;;;3.05;1.30;;;;;;;;;;4988924;28;20054;-65
2022/12/02 12:42:12;;;;;;;2.38;1.23;;;;;;;;;;4988966;28;20051;-63
2022/12/02 12:44:42;;;;;;;5.60;1.40;;;;;;;;;;4989065;28;20122;-63
2022/12/02 12:47:11;;;;;;;3.30;1.23;;;;;;;;;;4989073;28;20058;-63
2022/12/02 12:49:41;;;;;;;13.48;5.53;;;;;;;;;;4989084;28;20050;-63
2022/12/02 12:52:11;;;;;;;13.88;8.55;;;;;;;;;;4989161;28;20065;-63
2022/12/02 12:54:41;;;;;;;22.45;13.18;;;;;;;;;;4944424;28;20069;-63
2022/12/02 12:57:11;;;;;;;4.95;3.13;;;;;;;;;;4960375;28;20062;-64
2022/12/02 12:59:41;;;;;;;3.10;1.55;;;;;;;;;;5005676;28;20406;-64
2022/12/02 13:02:11;;;;;;;8.80;4.82;;;;;;;;;;4996402;28;20061;-63
2022/12/02 13:04:41;;;;;;;4.03;1.48;;;;;;;;;;4996260;28;20708;-64
2022/12/02 13:07:11;;;;;;;3.33;1.27;;;;;;;;;;4996447;28;20058;-64
2022/12/02 13:09:41;;;;;;;2.35;1.17;;;;;;;;;;5014449;28;20482;-64
2022/12/02 13:12:11;;;;;;;1.67;1.00;;;;;;;;;;4996362;28;20057;-64
2022/12/02 13:14:41;;;;;;;4.47;1.05;;;;;;;;;;5014514;28;20037;-63
2022/12/02 13:17:11;;;;;;;4.88;1.10;;;;;;;;;;4995867;28;20050;-64
2022/12/02 13:19:41;;;;;;;3.28;1.13;;;;;;;;;;4995954;28;20057;-65
2022/12/02 13:22:11;;;;;;;2.95;1.20;;;;;;;;;;5014718;28;20046;-65
2022/12/02 13:24:41;;;;;;;2.47;1.20;;;;;;;;;;4996267;28;20066;-65
2022/12/02 13:27:11;;;;;;;3.85;1.10;;;;;;;;;;4995737;28;20061;-65
2022/12/02 13:29:41;;;;;;;3.65;1.45;;;;;;;;;;5014166;28;20049;-64
2022/12/02 13:32:11;;;;;;;2.35;1.40;;;;;;;;;;5014215;28;20405;-64
2022/12/02 13:34:41;;;;;;;1.55;1.00;;;;;;;;;;5013677;28;20588;-64
2022/12/02 13:37:11;;;;;;;1.98;1.13;;;;;;;;;;5013031;28;20490;-64
2022/12/02 13:39:41;;;;;;;3.40;1.10;;;;;;;;;;5014331;28;20045;-66
2022/12/02 13:42:10;;;;;;;5.68;1.30;;;;;;;;;;5012749;28;20046;-65
2022/12/02 13:44:40;;;;;;;2.88;1.35;;;;;;;;;;5028316;28;20465;-65
2022/12/02 13:47:10;;;;;;;3.03;1.02;;;;;;;;;;5031054;28;20064;-64
2022/12/02 13:49:40;;;;;;;3.30;1.33;;;;;;;;;;4982335;28;20822;-65
2022/12/02 13:52:10;;;;;;;2.20;1.00;;;;;;;;;;4998170;28;20072;-64
2022/12/02 13:54:40;;;;;;;5.97;1.50;;;;;;;;;;5031250;28;20414;-64
2022/12/02 13:57:10;;;;;;;3.70;1.15;;;;;;;;;;5014574;28;20539;-64
2022/12/02 13:59:40;;;;;;;2.72;0.82;;;;;;;;;;5030516;28;20068;-65
2022/12/02 14:02:13;;;;;;;1.73;1.08;;;;;;;;;;4997844;28;20525;-64
2022/12/02 14:04:43;;;;;;;2.90;1.80;;;;;;;;;;5029683;28;20417;-64
2022/12/02 14:07:13;;;;;;;1.98;0.90;;;;;;;;;;4997754;28;20065;-65
2022/12/02 14:09:43;;;;;;;1.98;0.98;;;;;;;;;;5030860;28;20058;-65
2022/12/02 14:12:13;;;;;;;2.13;0.98;;;;;;;;;;5030700;28;20068;-65
2022/12/02 14:14:43;;;;;;;2.45;1.00;;;;;;;;;;5030587;28;20049;-64
2022/12/02 14:17:13;;;;;;;2.28;1.40;;;;;;;;;;5030532;28;20517;-65
2022/12/02 14:19:43;;;;;;;2.88;0.82;;;;;;;;;;5030693;28;20084;-63
2022/12/02 14:22:12;;;;;;;2.22;0.90;;;;;;;;;;5030638;28;20097;-64
2022/12/02 14:24:42;;;;;;;2.47;0.70;;;;;;;;;;5021242;28;20053;-64
2022/12/02 14:27:17;;;;;;;1.23;0.90;;;;;;;;;;4978461;28;20058;-65
2022/12/02 14:29:47;;;;;;;1.35;0.80;;;;;;;;;;4994853;28;20080;-66
2022/12/02 14:32:16;;;;;;;1.10;0.60;;;;;;;;;;5010983;28;20513;-66
2022/12/02 14:34:46;;;;;;;2.47;1.02;;;;;;;;;;5012998;28;20460;-66
2022/12/02 14:37:16;;;;;;;1.60;0.85;;;;;;;;;;4978277;28;20069;-65
2022/12/02 14:39:46;;;;;;;1.98;0.70;;;;;;;;;;4994498;28;20053;-67
2022/12/02 14:42:16;;;;;;;2.67;0.70;;;;;;;;;;4994139;28;20049;-66
2022/12/02 14:44:46;;;;;;;0.70;0.50;;;;;;;;;;5010651;28;20062;-66
2022/12/02 14:47:16;;;;;;;1.67;0.70;;;;;;;;;;4994342;28;20061;-66
2022/12/02 14:49:46;;;;;;;1.48;0.55;;;;;;;;;;4977414;28;20058;-65
2022/12/02 14:52:16;;;;;;;0.85;0.70;;;;;;;;;;4977758;28;20065;-64
2022/12/02 14:54:46;;;;;;;2.25;0.60;;;;;;;;;;4973347;28;20054;-66
2022/12/02 14:57:18;;;;;;;1.98;0.70;;;;;;;;;;4958092;28;20057;-65
2022/12/02 14:59:48;;;;;;;2.22;1.00;;;;;;;;;;5003252;28;20057;-66
2022/12/02 15:02:17;;;;;;;0.95;0.68;;;;;;;;;;4994155;28;20049;-64
2022/12/02 15:04:47;;;;;;;1.40;0.70;;;;;;;;;;5009941;28;20069;-66
2022/12/02 15:07:18;;;;;;;4.05;0.82;;;;;;;;;;4990253;28;20061;-64
2022/12/02 15:09:47;;;;;;;3.63;0.60;;;;;;;;;;4990483;28;20058;-65
2022/12/02 15:12:18;;;;;;;1.05;0.73;;;;;;;;;;4990456;28;20095;-64
2022/12/02 15:14:47;;;;;;;2.33;0.90;;;;;;;;;;5005815;28;20062;-66
2022/12/02 15:17:18;;;;;;;0.75;0.63;;;;;;;;;;4990104;28;20049;-63
2022/12/02 15:19:48;;;;;;;2.08;0.80;;;;;;;;;;4989831;28;20068;-65